sensor_id;sensor_type;location;lat;lon;timestamp;P1;durP1;ratioP1;P2;durP2;ratioP2
8293;SDS011;4185;41.506;24.938;2022-12-07T00:01:20;16.03;;;7.47;;
8293;SDS011;4185;41.506;24.938;2022-12-07T00:03:48;13.10;;;7.60;;
8293;SDS011;4185;41.506;24.938;2022-12-07T00:06:18;13.13;;;7.20;;
8293;SDS011;4185;41.506;24.938;2022-12-07T00:08:46;16.80;;;7.40;;
8293;SDS011;4185;41.506;24.938;2022-12-07T00:11:15;13.73;;;7.00;;
8293;SDS011;4185;41.506;24.938;2022-12-07T00:13:44;11.57;;;7.63;;
8293;SDS011;4185;41.506;24.938;2022-12-07T00:16:12;12.73;;;6.77;;
8293;SDS011;4185;41.506;24.938;2022-12-07T00:18:41;12.60;;;7.43;;
8293;SDS011;4185;41.506;24.938;2022-12-07T00:21:09;7.93;;;6.30;;
8293;SDS011;4185;41.506;24.938;2022-12-07T00:23:40;14.60;;;6.37;;
8293;SDS011;4185;41.506;24.938;2022-12-07T00:26:08;9.50;;;6.67;;
8293;SDS011;4185;41.506;24.938;2022-12-07T00:28:37;10.60;;;6.30;;
8293;SDS011;4185;41.506;24.938;2022-12-07T00:31:05;12.87;;;6.47;;
8293;SDS011;4185;41.506;24.938;2022-12-07T00:33:33;12.57;;;6.43;;
8293;SDS011;4185;41.506;24.938;2022-12-07T00:36:00;10.40;;;5.93;;
8293;SDS011;4185;41.506;24.938;2022-12-07T00:38:29;8.33;;;5.50;;
8293;SDS011;4185;41.506;24.938;2022-12-07T00:41:00;13.03;;;6.97;;
8293;SDS011;4185;41.506;24.938;2022-12-07T00:43:28;11.00;;;6.63;;
8293;SDS011;4185;41.506;24.938;2022-12-07T00:45:55;13.33;;;7.40;;
8293;SDS011;4185;41.506;24.938;2022-12-07T00:48:22;10.67;;;6.30;;
8293;SDS011;4185;41.506;24.938;2022-12-07T00:50:50;11.87;;;6.70;;
8293;SDS011;4185;41.506;24.938;2022-12-07T00:53:17;8.40;;;5.60;;
8293;SDS011;4185;41.506;24.938;2022-12-07T00:55:44;13.43;;;6.13;;
8293;SDS011;4185;41.506;24.938;2022-12-07T00:58:12;16.97;;;6.33;;
8293;SDS011;4185;41.506;24.938;2022-12-07T01:00:40;11.67;;;5.93;;
8293;SDS011;4185;41.506;24.938;2022-12-07T01:03:09;11.73;;;5.83;;
8293;SDS011;4185;41.506;24.938;2022-12-07T01:05:37;15.83;;;6.27;;
8293;SDS011;4185;41.506;24.938;2022-12-07T01:08:04;13.47;;;6.70;;
8293;SDS011;4185;41.506;24.938;2022-12-07T01:10:31;11.20;;;6.17;;
8293;SDS011;4185;41.506;24.938;2022-12-07T01:12:58;9.67;;;5.37;;
8293;SDS011;4185;41.506;24.938;2022-12-07T01:15:27;8.00;;;6.07;;
8293;SDS011;4185;41.506;24.938;2022-12-07T01:17:53;9.93;;;5.77;;
8293;SDS011;4185;41.506;24.938;2022-12-07T01:20:20;10.23;;;6.53;;
8293;SDS011;4185;41.506;24.938;2022-12-07T01:22:47;10.50;;;6.03;;
8293;SDS011;4185;41.506;24.938;2022-12-07T01:25:14;9.73;;;5.63;;
8293;SDS011;4185;41.506;24.938;2022-12-07T01:27:41;11.23;;;5.47;;
8293;SDS011;4185;41.506;24.938;2022-12-07T01:30:10;9.00;;;5.43;;
8293;SDS011;4185;41.506;24.938;2022-12-07T01:32:41;8.40;;;5.47;;
8293;SDS011;4185;41.506;24.938;2022-12-07T01:35:08;7.40;;;5.17;;
8293;SDS011;4185;41.506;24.938;2022-12-07T01:37:35;9.00;;;5.60;;
8293;SDS011;4185;41.506;24.938;2022-12-07T01:40:03;9.20;;;5.30;;
8293;SDS011;4185;41.506;24.938;2022-12-07T01:42:31;7.67;;;5.80;;
8293;SDS011;4185;41.506;24.938;2022-12-07T01:48:13;8.17;;;5.40;;
8293;SDS011;4185;41.506;24.938;2022-12-07T01:50:43;12.33;;;5.53;;
8293;SDS011;4185;41.506;24.938;2022-12-07T01:53:12;9.43;;;5.90;;
8293;SDS011;4185;41.506;24.938;2022-12-07T01:55:42;11.87;;;6.00;;
8293;SDS011;4185;41.506;24.938;2022-12-07T01:58:12;10.07;;;5.40;;
8293;SDS011;4185;41.506;24.938;2022-12-07T02:00:40;8.57;;;5.47;;
8293;SDS011;4185;41.506;24.938;2022-12-07T02:03:08;6.80;;;4.47;;
8293;SDS011;4185;41.506;24.938;2022-12-07T02:05:40;7.40;;;4.73;;
8293;SDS011;4185;41.506;24.938;2022-12-07T02:08:08;4.57;;;3.73;;
8293;SDS011;4185;41.506;24.938;2022-12-07T02:10:37;8.60;;;5.47;;
8293;SDS011;4185;41.506;24.938;2022-12-07T02:13:04;9.17;;;5.47;;
8293;SDS011;4185;41.506;24.938;2022-12-07T02:15:38;8.03;;;5.07;;
8293;SDS011;4185;41.506;24.938;2022-12-07T02:18:15;12.63;;;5.33;;
8293;SDS011;4185;41.506;24.938;2022-12-07T02:20:49;10.67;;;5.77;;
8293;SDS011;4185;41.506;24.938;2022-12-07T02:23:37;8.07;;;5.60;;
8293;SDS011;4185;41.506;24.938;2022-12-07T02:29:18;8.37;;;5.30;;
8293;SDS011;4185;41.506;24.938;2022-12-07T02:31:51;10.43;;;6.30;;
8293;SDS011;4185;41.506;24.938;2022-12-07T02:34:25;8.00;;;5.73;;
8293;SDS011;4185;41.506;24.938;2022-12-07T02:36:59;9.73;;;6.43;;
8293;SDS011;4185;41.506;24.938;2022-12-07T02:39:31;12.90;;;6.57;;
8293;SDS011;4185;41.506;24.938;2022-12-07T02:42:07;10.77;;;5.83;;
8293;SDS011;4185;41.506;24.938;2022-12-07T02:44:40;19.87;;;8.70;;
8293;SDS011;4185;41.506;24.938;2022-12-07T02:47:08;21.43;;;7.47;;
8293;SDS011;4185;41.506;24.938;2022-12-07T02:49:38;21.17;;;10.00;;
8293;SDS011;4185;41.506;24.938;2022-12-07T02:52:06;12.17;;;6.73;;
8293;SDS011;4185;41.506;24.938;2022-12-07T02:54:33;12.60;;;6.87;;
8293;SDS011;4185;41.506;24.938;2022-12-07T02:57:01;13.37;;;7.63;;
8293;SDS011;4185;41.506;24.938;2022-12-07T02:59:36;14.80;;;7.07;;
8293;SDS011;4185;41.506;24.938;2022-12-07T03:02:21;15.10;;;6.20;;
8293;SDS011;4185;41.506;24.938;2022-12-07T03:04:58;9.20;;;4.80;;
8293;SDS011;4185;41.506;24.938;2022-12-07T03:07:39;14.83;;;6.63;;
8293;SDS011;4185;41.506;24.938;2022-12-07T03:10:16;14.70;;;6.07;;
8293;SDS011;4185;41.506;24.938;2022-12-07T03:12:50;12.77;;;6.27;;
8293;SDS011;4185;41.506;24.938;2022-12-07T03:15:28;9.77;;;5.87;;
8293;SDS011;4185;41.506;24.938;2022-12-07T03:17:57;9.73;;;6.07;;
8293;SDS011;4185;41.506;24.938;2022-12-07T03:20:26;8.37;;;6.23;;
8293;SDS011;4185;41.506;24.938;2022-12-07T03:22:55;12.17;;;7.80;;
8293;SDS011;4185;41.506;24.938;2022-12-07T03:25:23;13.33;;;6.50;;
8293;SDS011;4185;41.506;24.938;2022-12-07T03:27:52;11.53;;;6.57;;
8293;SDS011;4185;41.506;24.938;2022-12-07T03:30:22;12.63;;;6.50;;
8293;SDS011;4185;41.506;24.938;2022-12-07T03:32:53;12.60;;;6.23;;
8293;SDS011;4185;41.506;24.938;2022-12-07T03:35:26;11.43;;;6.13;;
8293;SDS011;4185;41.506;24.938;2022-12-07T03:37:57;12.70;;;6.30;;
8293;SDS011;4185;41.506;24.938;2022-12-07T03:40:28;10.07;;;6.37;;
8293;SDS011;4185;41.506;24.938;2022-12-07T03:42:59;10.07;;;5.93;;
8293;SDS011;4185;41.506;24.938;2022-12-07T03:45:31;10.63;;;5.37;;
8293;SDS011;4185;41.506;24.938;2022-12-07T03:48:07;15.33;;;6.50;;
8293;SDS011;4185;41.506;24.938;2022-12-07T03:50:42;14.30;;;7.03;;
8293;SDS011;4185;41.506;24.938;2022-12-07T03:53:18;15.10;;;7.73;;
8293;SDS011;4185;41.506;24.938;2022-12-07T03:55:49;17.63;;;7.53;;
8293;SDS011;4185;41.506;24.938;2022-12-07T03:58:19;19.27;;;8.03;;
8293;SDS011;4185;41.506;24.938;2022-12-07T04:00:48;15.23;;;7.97;;
8293;SDS011;4185;41.506;24.938;2022-12-07T04:03:17;14.23;;;7.40;;
8293;SDS011;4185;41.506;24.938;2022-12-07T04:05:44;15.57;;;7.97;;
8293;SDS011;4185;41.506;24.938;2022-12-07T04:08:11;11.97;;;6.80;;
8293;SDS011;4185;41.506;24.938;2022-12-07T04:10:38;18.23;;;8.00;;
8293;SDS011;4185;41.506;24.938;2022-12-07T04:13:05;15.03;;;7.40;;
8293;SDS011;4185;41.506;24.938;2022-12-07T04:15:32;14.73;;;7.70;;
8293;SDS011;4185;41.506;24.938;2022-12-07T04:17:58;14.93;;;7.23;;
8293;SDS011;4185;41.506;24.938;2022-12-07T04:20:27;15.67;;;8.90;;
8293;SDS011;4185;41.506;24.938;2022-12-07T04:22:53;16.53;;;8.97;;
8293;SDS011;4185;41.506;24.938;2022-12-07T04:25:20;17.07;;;7.80;;
8293;SDS011;4185;41.506;24.938;2022-12-07T04:27:47;20.03;;;8.23;;
8293;SDS011;4185;41.506;24.938;2022-12-07T04:30:14;9.80;;;5.90;;
8293;SDS011;4185;41.506;24.938;2022-12-07T04:32:41;17.70;;;8.03;;
8293;SDS011;4185;41.506;24.938;2022-12-07T04:35:08;13.73;;;7.17;;
8293;SDS011;4185;41.506;24.938;2022-12-07T04:37:36;19.83;;;8.03;;
8293;SDS011;4185;41.506;24.938;2022-12-07T04:40:05;14.50;;;6.23;;
8293;SDS011;4185;41.506;24.938;2022-12-07T04:42:33;12.00;;;6.27;;
8293;SDS011;4185;41.506;24.938;2022-12-07T04:45:00;10.90;;;6.73;;
8293;SDS011;4185;41.506;24.938;2022-12-07T04:47:27;15.47;;;7.20;;
8293;SDS011;4185;41.506;24.938;2022-12-07T04:49:54;16.80;;;8.20;;
8293;SDS011;4185;41.506;24.938;2022-12-07T04:52:21;17.27;;;8.30;;
8293;SDS011;4185;41.506;24.938;2022-12-07T04:54:49;14.10;;;8.47;;
8293;SDS011;4185;41.506;24.938;2022-12-07T04:57:16;17.70;;;7.57;;
8293;SDS011;4185;41.506;24.938;2022-12-07T04:59:43;12.07;;;7.80;;
8293;SDS011;4185;41.506;24.938;2022-12-07T05:02:10;17.50;;;9.20;;
8293;SDS011;4185;41.506;24.938;2022-12-07T05:04:36;14.10;;;6.90;;
8293;SDS011;4185;41.506;24.938;2022-12-07T05:07:03;18.50;;;8.30;;
8293;SDS011;4185;41.506;24.938;2022-12-07T05:09:30;27.53;;;11.87;;
8293;SDS011;4185;41.506;24.938;2022-12-07T05:11:58;13.57;;;8.37;;
8293;SDS011;4185;41.506;24.938;2022-12-07T05:14:25;12.60;;;7.07;;
8293;SDS011;4185;41.506;24.938;2022-12-07T05:16:52;15.33;;;8.17;;
8293;SDS011;4185;41.506;24.938;2022-12-07T05:19:19;17.57;;;9.50;;
8293;SDS011;4185;41.506;24.938;2022-12-07T05:21:46;35.57;;;12.77;;
8293;SDS011;4185;41.506;24.938;2022-12-07T05:24:14;45.17;;;15.90;;
8293;SDS011;4185;41.506;24.938;2022-12-07T05:26:42;35.90;;;13.13;;
8293;SDS011;4185;41.506;24.938;2022-12-07T05:29:12;39.17;;;17.20;;
8293;SDS011;4185;41.506;24.938;2022-12-07T05:31:40;27.33;;;14.90;;
8293;SDS011;4185;41.506;24.938;2022-12-07T05:34:07;38.80;;;19.00;;
8293;SDS011;4185;41.506;24.938;2022-12-07T05:36:34;34.13;;;16.27;;
8293;SDS011;4185;41.506;24.938;2022-12-07T05:39:02;31.80;;;15.33;;
8293;SDS011;4185;41.506;24.938;2022-12-07T05:41:29;28.23;;;17.13;;
8293;SDS011;4185;41.506;24.938;2022-12-07T05:44:14;19.10;;;10.70;;
8293;SDS011;4185;41.506;24.938;2022-12-07T05:46:41;20.10;;;10.93;;
8293;SDS011;4185;41.506;24.938;2022-12-07T05:49:08;21.70;;;12.83;;
8293;SDS011;4185;41.506;24.938;2022-12-07T05:51:35;17.63;;;10.10;;
8293;SDS011;4185;41.506;24.938;2022-12-07T05:54:02;14.60;;;9.47;;
8293;SDS011;4185;41.506;24.938;2022-12-07T05:56:29;18.87;;;9.07;;
8293;SDS011;4185;41.506;24.938;2022-12-07T05:58:56;14.80;;;9.37;;
8293;SDS011;4185;41.506;24.938;2022-12-07T06:01:41;18.30;;;9.43;;
8293;SDS011;4185;41.506;24.938;2022-12-07T06:04:08;16.30;;;8.40;;
8293;SDS011;4185;41.506;24.938;2022-12-07T06:06:35;14.63;;;9.30;;
8293;SDS011;4185;41.506;24.938;2022-12-07T06:09:02;18.43;;;8.67;;
8293;SDS011;4185;41.506;24.938;2022-12-07T06:11:29;20.50;;;10.10;;
8293;SDS011;4185;41.506;24.938;2022-12-07T06:14:13;18.83;;;10.27;;
8293;SDS011;4185;41.506;24.938;2022-12-07T06:16:41;21.87;;;10.80;;
8293;SDS011;4185;41.506;24.938;2022-12-07T06:19:08;18.90;;;10.67;;
8293;SDS011;4185;41.506;24.938;2022-12-07T06:21:35;15.80;;;9.00;;
8293;SDS011;4185;41.506;24.938;2022-12-07T06:24:02;15.07;;;8.93;;
8293;SDS011;4185;41.506;24.938;2022-12-07T06:26:30;14.43;;;7.97;;
8293;SDS011;4185;41.506;24.938;2022-12-07T06:28:56;29.90;;;14.97;;
8293;SDS011;4185;41.506;24.938;2022-12-07T06:31:23;18.00;;;10.43;;
8293;SDS011;4185;41.506;24.938;2022-12-07T06:33:51;17.40;;;9.53;;
8293;SDS011;4185;41.506;24.938;2022-12-07T06:36:23;17.23;;;8.87;;
8293;SDS011;4185;41.506;24.938;2022-12-07T06:38:50;14.30;;;8.37;;
8293;SDS011;4185;41.506;24.938;2022-12-07T06:41:17;15.30;;;8.00;;
8293;SDS011;4185;41.506;24.938;2022-12-07T06:43:44;12.03;;;7.37;;
8293;SDS011;4185;41.506;24.938;2022-12-07T06:46:10;18.07;;;10.60;;
8293;SDS011;4185;41.506;24.938;2022-12-07T06:48:37;24.60;;;11.60;;
8293;SDS011;4185;41.506;24.938;2022-12-07T06:51:06;30.90;;;14.23;;
8293;SDS011;4185;41.506;24.938;2022-12-07T06:53:33;16.50;;;10.30;;
8293;SDS011;4185;41.506;24.938;2022-12-07T06:55:59;25.83;;;12.07;;
8293;SDS011;4185;41.506;24.938;2022-12-07T06:58:26;16.70;;;11.57;;
8293;SDS011;4185;41.506;24.938;2022-12-07T07:00:53;17.50;;;11.47;;
8293;SDS011;4185;41.506;24.938;2022-12-07T07:03:20;13.77;;;8.10;;
8293;SDS011;4185;41.506;24.938;2022-12-07T07:05:47;34.87;;;15.80;;
8293;SDS011;4185;41.506;24.938;2022-12-07T07:08:15;18.27;;;9.60;;
8293;SDS011;4185;41.506;24.938;2022-12-07T07:10:42;20.00;;;10.50;;
8293;SDS011;4185;41.506;24.938;2022-12-07T07:13:09;16.97;;;10.23;;
8293;SDS011;4185;41.506;24.938;2022-12-07T07:15:37;20.70;;;11.70;;
8293;SDS011;4185;41.506;24.938;2022-12-07T07:18:04;18.43;;;11.50;;
8293;SDS011;4185;41.506;24.938;2022-12-07T07:20:31;21.33;;;11.10;;
8293;SDS011;4185;41.506;24.938;2022-12-07T07:22:58;17.90;;;11.07;;
8293;SDS011;4185;41.506;24.938;2022-12-07T07:25:26;17.07;;;8.53;;
8293;SDS011;4185;41.506;24.938;2022-12-07T07:27:53;16.97;;;9.63;;
8293;SDS011;4185;41.506;24.938;2022-12-07T07:30:20;18.93;;;11.37;;
8293;SDS011;4185;41.506;24.938;2022-12-07T07:32:47;23.43;;;13.50;;
8293;SDS011;4185;41.506;24.938;2022-12-07T07:35:14;20.77;;;11.53;;
8293;SDS011;4185;41.506;24.938;2022-12-07T07:37:41;23.00;;;12.77;;
8293;SDS011;4185;41.506;24.938;2022-12-07T07:40:08;24.03;;;12.53;;
8293;SDS011;4185;41.506;24.938;2022-12-07T07:42:36;20.17;;;12.37;;
8293;SDS011;4185;41.506;24.938;2022-12-07T07:45:04;23.63;;;12.97;;
8293;SDS011;4185;41.506;24.938;2022-12-07T07:47:31;19.43;;;11.83;;
8293;SDS011;4185;41.506;24.938;2022-12-07T07:49:58;25.67;;;15.10;;
8293;SDS011;4185;41.506;24.938;2022-12-07T07:52:25;28.10;;;15.53;;
8293;SDS011;4185;41.506;24.938;2022-12-07T07:54:52;19.13;;;10.63;;
8293;SDS011;4185;41.506;24.938;2022-12-07T07:57:19;17.53;;;9.73;;
8293;SDS011;4185;41.506;24.938;2022-12-07T07:59:47;19.23;;;9.90;;
8293;SDS011;4185;41.506;24.938;2022-12-07T08:02:15;19.13;;;11.03;;
8293;SDS011;4185;41.506;24.938;2022-12-07T08:04:43;18.83;;;10.20;;
8293;SDS011;4185;41.506;24.938;2022-12-07T08:07:10;22.40;;;11.17;;
8293;SDS011;4185;41.506;24.938;2022-12-07T08:09:37;17.30;;;10.23;;
8293;SDS011;4185;41.506;24.938;2022-12-07T08:12:04;21.33;;;11.73;;
8293;SDS011;4185;41.506;24.938;2022-12-07T08:14:32;19.43;;;12.47;;
8293;SDS011;4185;41.506;24.938;2022-12-07T08:17:00;21.63;;;13.07;;
8293;SDS011;4185;41.506;24.938;2022-12-07T08:19:27;21.97;;;13.23;;
8293;SDS011;4185;41.506;24.938;2022-12-07T08:21:54;20.20;;;12.50;;
8293;SDS011;4185;41.506;24.938;2022-12-07T08:24:21;21.80;;;12.43;;
8293;SDS011;4185;41.506;24.938;2022-12-07T08:26:48;20.13;;;11.23;;
8293;SDS011;4185;41.506;24.938;2022-12-07T08:29:15;22.17;;;11.63;;
8293;SDS011;4185;41.506;24.938;2022-12-07T08:31:42;18.40;;;10.73;;
8293;SDS011;4185;41.506;24.938;2022-12-07T08:34:11;18.30;;;12.37;;
8293;SDS011;4185;41.506;24.938;2022-12-07T08:36:38;23.60;;;13.23;;
8293;SDS011;4185;41.506;24.938;2022-12-07T08:39:06;26.13;;;14.00;;
8293;SDS011;4185;41.506;24.938;2022-12-07T08:41:33;24.73;;;13.00;;
8293;SDS011;4185;41.506;24.938;2022-12-07T08:44:00;30.07;;;16.43;;
8293;SDS011;4185;41.506;24.938;2022-12-07T08:46:28;23.83;;;14.93;;
8293;SDS011;4185;41.506;24.938;2022-12-07T08:49:02;18.73;;;10.93;;
8293;SDS011;4185;41.506;24.938;2022-12-07T08:51:33;19.10;;;11.27;;
8293;SDS011;4185;41.506;24.938;2022-12-07T08:54:00;22.93;;;12.43;;
8293;SDS011;4185;41.506;24.938;2022-12-07T08:56:30;17.17;;;9.33;;
8293;SDS011;4185;41.506;24.938;2022-12-07T08:58:57;15.83;;;10.43;;
8293;SDS011;4185;41.506;24.938;2022-12-07T09:01:24;18.03;;;11.13;;
8293;SDS011;4185;41.506;24.938;2022-12-07T09:03:52;18.27;;;10.93;;
8293;SDS011;4185;41.506;24.938;2022-12-07T09:06:18;24.07;;;11.60;;
8293;SDS011;4185;41.506;24.938;2022-12-07T09:08:48;21.00;;;12.33;;
8293;SDS011;4185;41.506;24.938;2022-12-07T09:11:17;24.07;;;14.00;;
8293;SDS011;4185;41.506;24.938;2022-12-07T09:13:44;17.63;;;9.60;;
8293;SDS011;4185;41.506;24.938;2022-12-07T09:16:11;18.77;;;10.00;;
8293;SDS011;4185;41.506;24.938;2022-12-07T09:18:38;13.70;;;8.93;;
8293;SDS011;4185;41.506;24.938;2022-12-07T09:21:04;19.33;;;12.13;;
8293;SDS011;4185;41.506;24.938;2022-12-07T09:23:31;21.33;;;12.13;;
8293;SDS011;4185;41.506;24.938;2022-12-07T09:26:00;24.37;;;13.90;;
8293;SDS011;4185;41.506;24.938;2022-12-07T09:28:27;29.20;;;16.80;;
8293;SDS011;4185;41.506;24.938;2022-12-07T09:30:54;25.20;;;14.57;;
8293;SDS011;4185;41.506;24.938;2022-12-07T09:33:21;25.43;;;15.17;;
8293;SDS011;4185;41.506;24.938;2022-12-07T09:35:49;24.07;;;14.60;;
8293;SDS011;4185;41.506;24.938;2022-12-07T09:38:17;22.20;;;13.60;;
8293;SDS011;4185;41.506;24.938;2022-12-07T09:40:44;13.67;;;8.60;;
8293;SDS011;4185;41.506;24.938;2022-12-07T09:43:13;17.53;;;9.30;;
8293;SDS011;4185;41.506;24.938;2022-12-07T09:45:43;18.33;;;12.27;;
8293;SDS011;4185;41.506;24.938;2022-12-07T09:48:14;27.70;;;16.00;;
8293;SDS011;4185;41.506;24.938;2022-12-07T09:50:45;23.30;;;14.47;;
8293;SDS011;4185;41.506;24.938;2022-12-07T09:53:13;11.37;;;7.83;;
8293;SDS011;4185;41.506;24.938;2022-12-07T09:55:51;17.73;;;10.53;;
8293;SDS011;4185;41.506;24.938;2022-12-07T09:58:23;21.33;;;12.43;;
8293;SDS011;4185;41.506;24.938;2022-12-07T10:00:52;25.13;;;15.17;;
8293;SDS011;4185;41.506;24.938;2022-12-07T10:03:22;20.43;;;12.13;;
8293;SDS011;4185;41.506;24.938;2022-12-07T10:05:50;20.53;;;12.60;;
8293;SDS011;4185;41.506;24.938;2022-12-07T10:08:18;21.33;;;12.63;;
8293;SDS011;4185;41.506;24.938;2022-12-07T10:10:46;19.13;;;11.53;;
8293;SDS011;4185;41.506;24.938;2022-12-07T10:13:19;22.90;;;13.57;;
8293;SDS011;4185;41.506;24.938;2022-12-07T10:15:50;21.27;;;12.90;;
8293;SDS011;4185;41.506;24.938;2022-12-07T10:18:29;22.13;;;15.33;;
8293;SDS011;4185;41.506;24.938;2022-12-07T10:21:02;107.90;;;54.87;;
8293;SDS011;4185;41.506;24.938;2022-12-07T10:23:32;37.43;;;19.60;;
8293;SDS011;4185;41.506;24.938;2022-12-07T10:26:00;28.70;;;16.70;;
8293;SDS011;4185;41.506;24.938;2022-12-07T10:28:47;28.70;;;17.00;;
8293;SDS011;4185;41.506;24.938;2022-12-07T10:31:17;23.77;;;12.97;;
8293;SDS011;4185;41.506;24.938;2022-12-07T10:33:49;26.47;;;17.93;;
8293;SDS011;4185;41.506;24.938;2022-12-07T10:36:21;13.40;;;9.80;;
8293;SDS011;4185;41.506;24.938;2022-12-07T10:38:51;14.20;;;7.93;;
8293;SDS011;4185;41.506;24.938;2022-12-07T10:41:19;10.37;;;6.70;;
8293;SDS011;4185;41.506;24.938;2022-12-07T10:43:47;10.30;;;7.10;;
8293;SDS011;4185;41.506;24.938;2022-12-07T10:46:29;9.07;;;6.17;;
8293;SDS011;4185;41.506;24.938;2022-12-07T10:52:44;4.90;;;3.80;;
8293;SDS011;4185;41.506;24.938;2022-12-07T10:55:20;3.63;;;3.00;;
8293;SDS011;4185;41.506;24.938;2022-12-07T11:00:46;5.80;;;4.40;;
8293;SDS011;4185;41.506;24.938;2022-12-07T11:03:27;8.50;;;4.50;;
8293;SDS011;4185;41.506;24.938;2022-12-07T11:06:08;5.17;;;3.60;;
8293;SDS011;4185;41.506;24.938;2022-12-07T11:08:47;4.40;;;3.57;;
8293;SDS011;4185;41.506;24.938;2022-12-07T11:11:26;4.10;;;2.80;;
8293;SDS011;4185;41.506;24.938;2022-12-07T11:14:01;3.63;;;2.70;;
8293;SDS011;4185;41.506;24.938;2022-12-07T11:16:41;4.87;;;4.20;;
8293;SDS011;4185;41.506;24.938;2022-12-07T11:19:20;5.13;;;2.83;;
8293;SDS011;4185;41.506;24.938;2022-12-07T11:22:00;5.80;;;2.30;;
8293;SDS011;4185;41.506;24.938;2022-12-07T11:24:32;4.43;;;2.73;;
8293;SDS011;4185;41.506;24.938;2022-12-07T11:27:14;3.00;;;2.33;;
8293;SDS011;4185;41.506;24.938;2022-12-07T11:29:53;4.23;;;2.93;;
8293;SDS011;4185;41.506;24.938;2022-12-07T11:35:35;2.77;;;2.40;;
8293;SDS011;4185;41.506;24.938;2022-12-07T11:38:10;3.43;;;2.33;;
8293;SDS011;4185;41.506;24.938;2022-12-07T11:40:41;3.67;;;2.80;;
8293;SDS011;4185;41.506;24.938;2022-12-07T11:43:13;3.17;;;2.00;;
8293;SDS011;4185;41.506;24.938;2022-12-07T11:45:46;2.00;;;1.83;;
8293;SDS011;4185;41.506;24.938;2022-12-07T11:48:22;2.63;;;2.00;;
8293;SDS011;4185;41.506;24.938;2022-12-07T11:50:56;2.37;;;1.87;;
8293;SDS011;4185;41.506;24.938;2022-12-07T11:53:26;4.27;;;2.37;;
8293;SDS011;4185;41.506;24.938;2022-12-07T11:55:56;3.20;;;2.50;;
8293;SDS011;4185;41.506;24.938;2022-12-07T11:58:35;2.57;;;2.37;;
8293;SDS011;4185;41.506;24.938;2022-12-07T12:01:14;2.17;;;1.80;;
8293;SDS011;4185;41.506;24.938;2022-12-07T12:03:50;3.37;;;2.20;;
8293;SDS011;4185;41.506;24.938;2022-12-07T12:06:20;5.07;;;3.00;;
8293;SDS011;4185;41.506;24.938;2022-12-07T12:08:48;2.93;;;2.23;;
8293;SDS011;4185;41.506;24.938;2022-12-07T12:11:25;3.30;;;2.53;;
8293;SDS011;4185;41.506;24.938;2022-12-07T12:20:00;6.20;;;3.60;;
8293;SDS011;4185;41.506;24.938;2022-12-07T12:22:34;5.40;;;3.20;;
8293;SDS011;4185;41.506;24.938;2022-12-07T12:25:07;4.60;;;3.13;;
8293;SDS011;4185;41.506;24.938;2022-12-07T12:27:44;6.33;;;3.43;;
8293;SDS011;4185;41.506;24.938;2022-12-07T12:33:01;5.87;;;4.63;;
8293;SDS011;4185;41.506;24.938;2022-12-07T12:35:31;4.83;;;3.60;;
8293;SDS011;4185;41.506;24.938;2022-12-07T12:41:00;4.47;;;3.30;;
8293;SDS011;4185;41.506;24.938;2022-12-07T12:55:45;5.63;;;4.07;;
8293;SDS011;4185;41.506;24.938;2022-12-07T12:58:36;5.63;;;3.83;;
8293;SDS011;4185;41.506;24.938;2022-12-07T13:07:07;3.73;;;2.83;;
8293;SDS011;4185;41.506;24.938;2022-12-07T13:09:38;3.80;;;2.90;;
8293;SDS011;4185;41.506;24.938;2022-12-07T13:12:13;3.23;;;2.57;;
8293;SDS011;4185;41.506;24.938;2022-12-07T13:14:55;4.23;;;3.40;;
8293;SDS011;4185;41.506;24.938;2022-12-07T13:20:42;7.03;;;4.17;;
8293;SDS011;4185;41.506;24.938;2022-12-07T13:23:11;6.37;;;5.27;;
8293;SDS011;4185;41.506;24.938;2022-12-07T13:25:45;4.93;;;3.33;;
8293;SDS011;4185;41.506;24.938;2022-12-07T13:28:18;5.60;;;3.67;;
8293;SDS011;4185;41.506;24.938;2022-12-07T13:30:52;7.80;;;4.40;;
8293;SDS011;4185;41.506;24.938;2022-12-07T13:33:27;5.63;;;3.80;;
8293;SDS011;4185;41.506;24.938;2022-12-07T13:35:55;6.33;;;4.70;;
8293;SDS011;4185;41.506;24.938;2022-12-07T13:38:26;10.13;;;4.97;;
8293;SDS011;4185;41.506;24.938;2022-12-07T13:41:11;4.40;;;3.30;;
8293;SDS011;4185;41.506;24.938;2022-12-07T13:43:47;6.70;;;4.53;;
8293;SDS011;4185;41.506;24.938;2022-12-07T13:46:17;9.57;;;5.23;;
8293;SDS011;4185;41.506;24.938;2022-12-07T13:48:50;5.00;;;4.00;;
8293;SDS011;4185;41.506;24.938;2022-12-07T13:51:19;5.03;;;4.23;;
8293;SDS011;4185;41.506;24.938;2022-12-07T13:53:48;9.77;;;5.93;;
8293;SDS011;4185;41.506;24.938;2022-12-07T13:56:16;7.37;;;5.30;;
8293;SDS011;4185;41.506;24.938;2022-12-07T13:58:43;10.33;;;7.20;;
8293;SDS011;4185;41.506;24.938;2022-12-07T14:01:12;24.50;;;12.77;;
8293;SDS011;4185;41.506;24.938;2022-12-07T14:03:39;13.30;;;8.17;;
8293;SDS011;4185;41.506;24.938;2022-12-07T14:09:07;10.83;;;6.23;;
8293;SDS011;4185;41.506;24.938;2022-12-07T14:11:35;6.33;;;4.70;;
8293;SDS011;4185;41.506;24.938;2022-12-07T14:14:03;8.60;;;5.73;;
8293;SDS011;4185;41.506;24.938;2022-12-07T14:16:33;9.00;;;5.47;;
8293;SDS011;4185;41.506;24.938;2022-12-07T14:19:01;15.27;;;7.47;;
8293;SDS011;4185;41.506;24.938;2022-12-07T14:21:30;9.70;;;5.60;;
8293;SDS011;4185;41.506;24.938;2022-12-07T14:24:02;6.23;;;4.40;;
8293;SDS011;4185;41.506;24.938;2022-12-07T14:26:36;11.90;;;7.07;;
8293;SDS011;4185;41.506;24.938;2022-12-07T14:29:21;10.97;;;8.00;;
8293;SDS011;4185;41.506;24.938;2022-12-07T14:31:56;10.50;;;7.47;;
8293;SDS011;4185;41.506;24.938;2022-12-07T14:34:24;11.23;;;7.40;;
8293;SDS011;4185;41.506;24.938;2022-12-07T14:36:51;11.20;;;7.80;;
8293;SDS011;4185;41.506;24.938;2022-12-07T14:39:18;12.17;;;7.77;;
8293;SDS011;4185;41.506;24.938;2022-12-07T14:41:45;11.47;;;7.17;;
8293;SDS011;4185;41.506;24.938;2022-12-07T14:44:18;18.23;;;12.80;;
8293;SDS011;4185;41.506;24.938;2022-12-07T14:46:46;16.30;;;10.23;;
8293;SDS011;4185;41.506;24.938;2022-12-07T14:49:15;21.80;;;13.90;;
8293;SDS011;4185;41.506;24.938;2022-12-07T14:51:42;27.80;;;17.23;;
8293;SDS011;4185;41.506;24.938;2022-12-07T14:54:13;22.20;;;12.40;;
8293;SDS011;4185;41.506;24.938;2022-12-07T14:56:42;23.93;;;14.03;;
8293;SDS011;4185;41.506;24.938;2022-12-07T14:59:11;28.37;;;16.10;;
8293;SDS011;4185;41.506;24.938;2022-12-07T15:01:38;29.70;;;17.33;;
8293;SDS011;4185;41.506;24.938;2022-12-07T15:04:05;29.60;;;16.80;;
8293;SDS011;4185;41.506;24.938;2022-12-07T15:06:34;21.73;;;12.97;;
8293;SDS011;4185;41.506;24.938;2022-12-07T15:09:00;15.67;;;11.50;;
8293;SDS011;4185;41.506;24.938;2022-12-07T15:11:27;11.13;;;7.63;;
8293;SDS011;4185;41.506;24.938;2022-12-07T15:13:54;157.67;;;99.60;;
8293;SDS011;4185;41.506;24.938;2022-12-07T15:16:37;30.73;;;20.30;;
8293;SDS011;4185;41.506;24.938;2022-12-07T15:19:06;33.60;;;25.73;;
8293;SDS011;4185;41.506;24.938;2022-12-07T15:21:38;38.20;;;24.37;;
8293;SDS011;4185;41.506;24.938;2022-12-07T15:24:05;44.67;;;28.77;;
8293;SDS011;4185;41.506;24.938;2022-12-07T15:26:32;45.47;;;31.87;;
8293;SDS011;4185;41.506;24.938;2022-12-07T15:28:58;39.47;;;24.53;;
8293;SDS011;4185;41.506;24.938;2022-12-07T15:31:25;43.83;;;27.33;;
8293;SDS011;4185;41.506;24.938;2022-12-07T15:33:52;29.17;;;17.37;;
8293;SDS011;4185;41.506;24.938;2022-12-07T15:36:20;17.07;;;10.90;;
8293;SDS011;4185;41.506;24.938;2022-12-07T15:38:50;123.03;;;59.87;;
8293;SDS011;4185;41.506;24.938;2022-12-07T15:41:17;130.73;;;67.33;;
8293;SDS011;4185;41.506;24.938;2022-12-07T15:43:44;130.87;;;66.43;;
8293;SDS011;4185;41.506;24.938;2022-12-07T15:46:30;114.97;;;58.37;;
8293;SDS011;4185;41.506;24.938;2022-12-07T15:48:57;59.07;;;33.30;;
8293;SDS011;4185;41.506;24.938;2022-12-07T15:51:25;69.97;;;35.73;;
8293;SDS011;4185;41.506;24.938;2022-12-07T15:53:53;62.37;;;33.57;;